Impacts METAR Board
IDs:

KPIT - Pittsburgh Intl, PA, US

Updated at: 0300 UTC 12 Dec 2018
Potential Impact None Slight Moderate High
Time 11/15Z 11/16Z 11/17Z 11/18Z 11/19Z 11/20Z 11/21Z 11/22Z 11/23Z 12/00Z 12/01Z 12/02Z 12/03Z
Temp24 26 29 32 32 33 33 31 30 30 30 31 31
Dewpt18 19 20 20 19 19 20 22 22 21 21 21 21
Altim30.12 30.11 30.07 30.03 30.01 30.00 30.00 29.99 30.01 30.02 30.04 30.03 30.04
VIS9 10 10 10 10 10 10 10 10 10 10 10 10
CIG-- -- -- -- -- -- -- -- -- -- 39 37 35
CoverSCTFEWCLRCLRCLRCLRCLRCLRCLRCLROVCOVCOVC
FltCatVFRVFRVFRVFRVFRVFRVFRVFRVFRVFRVFRVFRVFR
WX--------------------------
WDir220210220220240230250230230230250220250
WSpd10 11 9 11 11 10 11 9 6 6 3 7 4
WGst16 -- -- 15 17 -- 19 16 -- -- -- -- --
Raw hourly METARs
KPIT 111451Z 22010G16KT 9SM SCT012 M04/M08 A3012 RMK AO2 SLP226 T10441078 58003
KPIT 111551Z 21011KT 10SM FEW013 M03/M07 A3011 RMK AO2 SLP220 T10331072
KPIT 111651Z 22009KT 10SM CLR M02/M07 A3007 RMK AO2 SLP204 T10171067
KPIT 111751Z 22011G15KT 10SM CLR 00/M07 A3003 RMK AO2 SLP190 T00001067 10000 21056 58032
KPIT 111851Z 24011G17KT 10SM CLR 00/M07 A3001 RMK AO2 SLP183 T00001072
KPIT 111951Z 23010KT 10SM CLR 01/M07 A3000 RMK AO2 SLP180 T00061072
KPIT 112051Z 25011G19KT 10SM CLR 01/M07 A3000 RMK AO2 SLP180 T00061067 56009
KPIT 112151Z 23009G16KT 10SM CLR M01/M06 A2999 RMK AO2 SLP180 T10061056
KPIT 112251Z 23006KT 10SM CLR M01/M06 A3001 RMK AO2 SLP184 T10111056
KPIT 112351Z 23006KT 10SM CLR M01/M06 A3002 RMK AO2 SLP189 T10111061 10011 21011 53007
KPIT 120051Z 25003KT 10SM OVC039 M01/M06 A3004 RMK AO2 SLP195 T10111061
KPIT 120151Z 22007KT 10SM OVC037 M01/M06 A3003 RMK AO2 SLP193 T10061061
KPIT 120251Z 25004KT 10SM OVC035 M01/M06 A3004 RMK AO2 SLP195 T10061061 51007



Page loaded:  03:41 UTC  |   07:41 PM Pacific  |   08:41 PM Mountain  |   09:41 PM Central  |   10:41 PM Eastern

 

ADVISORIES

FORECASTS

FORECASTS

OBSERVATIONS

USER TOOLS

ABOUT US